createdAt,value
2018-05-25T08:31:36.212Z,2.50
2018-05-25T08:34:03.694Z,2.23
2018-05-25T08:36:31.271Z,2.33
2018-05-25T08:38:58.729Z,6.67
2018-05-25T08:41:26.973Z,3.40
2018-05-25T08:43:54.444Z,3.00
2018-05-25T08:46:21.925Z,2.40
2018-05-25T08:48:50.249Z,2.67
2018-05-25T08:51:17.745Z,2.70
2018-05-25T08:53:45.984Z,3.47
2018-05-25T08:56:13.448Z,2.53
2018-05-25T08:58:40.938Z,2.30
2018-05-25T09:01:08.404Z,2.80
2018-05-25T09:03:36.629Z,2.67
2018-05-25T09:06:04.125Z,2.53
2018-05-25T09:08:31.591Z,3.57
2018-05-25T09:10:59.057Z,2.53
2018-05-25T09:13:26.515Z,2.80
2018-05-25T09:15:53.970Z,2.20
2018-05-25T09:18:21.429Z,2.20
2018-05-25T09:20:48.893Z,2.13
2018-05-25T09:23:16.353Z,2.30
2018-05-25T09:25:43.896Z,2.23
2018-05-25T09:28:11.454Z,1.90
2018-05-25T09:30:38.919Z,1.90
2018-05-25T09:33:06.469Z,1.80
2018-05-25T09:35:33.929Z,1.70
2018-05-25T09:38:01.392Z,1.97
2018-05-25T09:40:28.873Z,2.20
2018-05-25T09:42:57.133Z,2.43
2018-05-25T09:45:24.586Z,2.50
2018-05-25T09:47:52.145Z,2.50
2018-05-25T09:50:19.609Z,2.10
2018-05-25T09:52:47.065Z,1.90
2018-05-25T09:55:14.524Z,1.77
2018-05-25T09:57:53.912Z,2.00
2018-05-25T10:00:21.366Z,2.00
2018-05-25T10:02:48.872Z,2.27
2018-05-25T10:05:16.432Z,2.00
2018-05-25T10:07:43.904Z,2.33
2018-05-25T10:10:12.140Z,2.27
2018-05-25T10:12:39.601Z,2.23
2018-05-25T10:15:07.074Z,2.20
2018-05-25T10:17:34.533Z,2.07
2018-05-25T10:20:02.101Z,2.10
2018-05-25T10:22:29.581Z,2.40
2018-05-25T10:24:57.817Z,2.70
2018-05-25T10:27:25.285Z,2.50
2018-05-25T10:29:52.849Z,2.30
2018-05-25T10:32:20.315Z,2.33
2018-05-25T10:34:47.874Z,1.70
2018-05-25T10:37:15.437Z,2.70
2018-05-25T10:39:42.901Z,3.43
2018-05-25T10:42:10.360Z,2.23
2018-05-25T10:44:37.904Z,2.50
2018-05-25T10:47:06.187Z,2.77
2018-05-25T10:49:33.648Z,2.53
2018-05-25T10:52:01.167Z,2.20
2018-05-25T10:54:28.656Z,2.40
2018-05-25T10:56:56.131Z,2.70
2018-05-25T10:59:23.685Z,2.33
2018-05-25T11:01:51.236Z,3.00
2018-05-25T11:04:18.861Z,2.33
2018-05-25T11:06:46.361Z,2.40
2018-05-25T11:09:13.921Z,2.50
2018-05-25T11:11:41.381Z,2.70
2018-05-25T11:14:08.840Z,2.40
2018-05-25T11:16:36.304Z,2.40
2018-05-25T11:19:03.756Z,2.67
2018-05-25T11:21:31.273Z,2.40
2018-05-25T11:23:58.729Z,2.23
2018-05-25T11:26:26.180Z,2.43
2018-05-25T11:28:53.693Z,2.43
2018-05-25T11:31:21.149Z,2.37
2018-05-25T11:33:48.613Z,2.40
2018-05-25T11:36:16.162Z,2.20
2018-05-25T11:38:43.724Z,2.20
2018-05-25T11:41:11.189Z,2.50
2018-05-25T11:43:38.648Z,2.50
2018-05-25T11:46:06.104Z,2.30
2018-05-25T11:48:33.656Z,2.10
2018-05-25T11:51:01.116Z,2.07
2018-05-25T11:53:28.684Z,2.07
2018-05-25T11:55:56.144Z,2.40
2018-05-25T11:58:23.695Z,2.37
2018-05-25T12:00:51.162Z,2.30
2018-05-25T12:03:18.622Z,2.27
2018-05-25T12:05:46.148Z,2.27
2018-05-25T12:08:13.613Z,2.13
2018-05-25T12:10:41.077Z,2.20
2018-05-25T12:13:08.545Z,2.50
2018-05-25T12:15:36.112Z,2.13
2018-05-25T12:18:03.571Z,2.33
2018-05-25T12:20:31.028Z,2.43
2018-05-25T12:22:58.489Z,2.27
2018-05-25T12:25:26.046Z,2.60
2018-05-25T12:27:53.517Z,2.30
2018-05-25T12:30:21.777Z,2.20
2018-05-25T12:32:49.248Z,2.43
2018-05-25T12:35:16.702Z,2.30
2018-05-25T12:37:44.252Z,2.70
2018-05-25T12:40:11.716Z,2.43
2018-05-25T12:42:39.273Z,2.33
2018-05-25T12:45:13.286Z,2.47
2018-05-25T12:47:40.846Z,2.90
2018-05-25T12:50:09.837Z,2.50
2018-05-25T12:52:38.120Z,2.63
2018-05-25T12:55:05.680Z,2.80
2018-05-25T12:57:33.141Z,2.60
2018-05-25T13:00:01.423Z,2.80
2018-05-25T13:02:29.040Z,2.63
2018-05-25T13:04:56.492Z,2.23
2018-05-25T13:07:23.948Z,2.47
2018-05-25T13:09:51.408Z,2.00
2018-05-25T13:12:18.905Z,2.73
2018-05-25T13:14:46.477Z,2.23
2018-05-25T13:17:13.933Z,1.93
2018-05-25T13:19:41.388Z,2.57
2018-05-25T13:22:08.853Z,2.30
2018-05-25T13:24:37.176Z,2.30
2018-05-25T13:27:04.676Z,2.77
2018-05-25T13:29:32.137Z,2.30
2018-05-25T13:31:59.692Z,2.50
2018-05-25T13:34:27.156Z,2.17
2018-05-25T13:36:54.717Z,2.23
2018-05-25T13:39:22.989Z,2.17
2018-05-25T13:41:50.553Z,2.37
2018-05-25T13:44:18.018Z,2.40
2018-05-25T13:46:45.527Z,2.60
2018-05-25T13:49:13.004Z,2.47
2018-05-25T13:51:40.547Z,3.40
2018-05-25T13:54:08.009Z,3.23
2018-05-25T13:56:35.505Z,2.83
2018-05-25T13:59:03.065Z,2.53
2018-05-25T14:01:30.533Z,2.73
2018-05-25T14:03:58.796Z,2.67
2018-05-25T14:06:27.036Z,2.20
2018-05-25T14:08:54.532Z,2.83
2018-05-25T14:11:22.129Z,3.10
2018-05-25T14:13:49.569Z,2.10
2018-05-25T14:16:17.814Z,2.83
2018-05-25T14:18:45.349Z,2.40
2018-05-25T14:21:12.806Z,2.50
2018-05-25T14:23:40.264Z,2.80
2018-05-25T14:26:07.761Z,3.20
2018-05-25T14:28:35.224Z,2.70
2018-05-25T14:31:02.786Z,2.47
2018-05-25T14:33:30.249Z,2.30
2018-05-25T14:35:57.713Z,2.60
2018-05-25T14:38:25.945Z,2.90
2018-05-25T14:40:53.405Z,2.70
2018-05-25T14:43:20.893Z,2.40
2018-05-25T14:45:48.453Z,2.67
2018-05-25T14:48:15.914Z,2.70
2018-05-25T14:50:43.373Z,2.43
2018-05-25T14:53:10.849Z,2.63
2018-05-25T14:55:39.104Z,2.43
2018-05-25T14:58:06.672Z,2.90
2018-05-25T15:00:34.138Z,2.73
2018-05-25T15:03:01.680Z,2.80
2018-05-25T15:05:29.146Z,2.60
2018-05-25T15:07:56.659Z,2.60
2018-05-25T15:10:24.220Z,2.50
2018-05-25T15:12:51.670Z,2.43
2018-05-25T15:15:19.175Z,2.53
2018-05-25T15:17:46.642Z,2.60
2018-05-25T15:20:14.102Z,2.40
2018-05-25T15:22:42.325Z,2.97
2018-05-25T15:25:09.800Z,2.23
2018-05-25T15:27:37.267Z,5.37
2018-05-25T15:30:04.748Z,4.80
2018-05-25T15:32:32.480Z,5.40
2018-05-25T15:34:59.768Z,6.93
2018-05-25T15:37:27.341Z,7.03
2018-05-25T15:39:54.882Z,6.27
2018-05-25T15:42:22.403Z,6.47
2018-05-25T15:44:49.901Z,6.20
2018-05-25T15:47:17.361Z,6.13
2018-05-25T15:49:45.062Z,6.00
2018-05-25T15:52:13.300Z,6.13
2018-05-25T15:54:40.757Z,6.07
2018-05-25T15:57:08.218Z,6.20
2018-05-25T15:59:35.777Z,6.97
2018-05-25T16:02:03.244Z,6.47
2018-05-25T16:04:30.756Z,5.77
2018-05-25T16:06:58.253Z,5.87
2018-05-25T16:09:25.771Z,5.87
2018-05-25T16:11:53.278Z,6.30
2018-05-25T16:14:20.880Z,6.27
2018-05-25T16:16:48.453Z,6.17
2018-05-25T16:19:15.957Z,5.70
2018-05-25T16:21:43.434Z,5.27
2018-05-25T16:24:10.894Z,5.63
2018-05-25T16:26:39.125Z,5.03
2018-05-25T16:29:06.585Z,5.27
2018-05-25T16:31:34.085Z,4.83
2018-05-25T16:34:01.533Z,4.93
2018-05-25T16:36:29.008Z,4.53
2018-05-25T16:38:57.237Z,4.83
2018-05-25T16:41:24.774Z,4.70
2018-05-25T16:43:52.232Z,4.03
2018-05-25T16:46:19.733Z,4.13
2018-05-25T16:48:47.293Z,4.27
2018-05-25T16:51:14.775Z,3.90
2018-05-25T16:53:43.036Z,4.10
2018-05-25T16:56:10.585Z,4.47
2018-05-25T16:58:38.050Z,4.33
2018-05-25T17:01:05.521Z,4.20
2018-05-25T17:03:33.065Z,4.30
2018-05-25T17:06:00.626Z,4.10
2018-05-25T17:08:28.089Z,4.03
2018-05-25T17:10:55.646Z,4.03
2018-05-25T17:13:23.117Z,3.97
2018-05-25T17:15:50.657Z,3.97
2018-05-25T17:18:18.125Z,3.90
2018-05-25T17:20:45.589Z,4.13
2018-05-25T17:23:13.056Z,4.27
2018-05-25T17:25:40.530Z,3.97
2018-05-25T17:28:08.753Z,4.13
2018-05-25T17:30:36.223Z,4.23
2018-05-25T17:33:03.691Z,5.50
2018-05-25T17:35:31.920Z,3.80
2018-05-25T17:37:59.481Z,4.43
2018-05-25T17:40:26.938Z,5.10
2018-05-25T17:42:54.406Z,4.67
2018-05-25T17:45:21.887Z,4.37
2018-05-25T17:47:49.346Z,4.87
2018-05-25T17:50:16.809Z,4.50
2018-05-25T17:52:44.372Z,4.30
2018-05-25T17:55:11.833Z,4.03
2018-05-25T17:57:39.294Z,4.10
2018-05-25T18:00:06.761Z,4.30
2018-05-25T18:02:34.310Z,4.27
2018-05-25T18:05:01.779Z,4.47
2018-05-25T18:07:29.237Z,4.17
2018-05-25T18:09:56.716Z,4.20
2018-05-25T18:12:24.961Z,3.83
2018-05-25T18:14:52.429Z,4.23
2018-05-25T18:17:19.967Z,4.13
2018-05-25T18:19:47.389Z,4.57
2018-05-25T18:22:14.894Z,4.90
2018-05-25T18:24:42.413Z,4.20
2018-05-25T18:27:09.872Z,4.37
2018-05-25T18:29:37.333Z,4.10
2018-05-25T18:32:04.802Z,3.93
2018-05-25T18:34:32.762Z,4.63
2018-05-25T18:37:00.229Z,4.10
2018-05-25T18:39:27.710Z,4.30
2018-05-25T18:41:55.568Z,4.20
2018-05-25T18:44:23.028Z,4.80
2018-05-25T18:46:50.492Z,7.20
2018-05-25T18:49:18.427Z,4.70
2018-05-25T18:51:45.901Z,4.90
2018-05-25T18:54:25.632Z,5.03
2018-05-25T18:56:53.101Z,4.73
2018-05-25T18:59:20.728Z,5.20
2018-05-25T19:01:48.977Z,10.67
2018-05-25T19:04:16.486Z,8.33
2018-05-25T19:06:44.356Z,6.63
2018-05-25T19:09:11.872Z,5.43
2018-05-25T19:11:39.782Z,4.87
2018-05-25T19:14:07.240Z,6.57
2018-05-25T19:16:35.008Z,4.60
2018-05-25T19:19:02.464Z,6.97
2018-05-25T19:21:29.953Z,6.50
2018-05-25T19:23:57.412Z,6.07
2018-05-25T19:26:24.873Z,6.03
2018-05-25T19:28:53.161Z,6.37
2018-05-25T19:31:20.632Z,5.90
2018-05-25T19:33:48.101Z,6.13
2018-05-25T19:36:16.346Z,5.77
2018-05-25T19:38:43.808Z,7.10
2018-05-25T19:41:11.373Z,6.27
2018-05-25T19:43:38.833Z,5.87
2018-05-25T19:46:06.754Z,6.10
2018-05-25T19:48:34.725Z,7.33
2018-05-25T19:51:02.185Z,8.10
2018-05-25T19:53:29.685Z,11.57
2018-05-25T19:55:57.144Z,19.33
2018-05-25T19:58:24.701Z,16.07
2018-05-25T20:00:52.181Z,12.73
2018-05-25T20:03:20.905Z,11.20
2018-05-25T20:05:48.370Z,10.57
2018-05-25T20:08:16.242Z,10.90
2018-05-25T20:10:43.701Z,10.20
2018-05-25T20:13:11.661Z,9.97
2018-05-25T20:15:39.125Z,18.53
2018-05-25T20:18:06.589Z,13.43
2018-05-25T20:20:34.053Z,9.03
2018-05-25T20:23:01.517Z,7.40
2018-05-25T20:25:28.981Z,9.57
2018-05-25T20:27:56.448Z,8.73
2018-05-25T20:30:23.912Z,7.90
2018-05-25T20:32:51.477Z,8.00
2018-05-25T20:35:22.057Z,7.07
2018-05-25T20:37:50.585Z,8.33
2018-05-25T20:40:18.053Z,9.13
2018-05-25T20:42:45.600Z,9.07
2018-05-25T20:45:13.165Z,8.57
2018-05-25T20:47:40.679Z,8.83
2018-05-25T20:50:08.133Z,9.73
2018-05-25T20:52:35.590Z,9.70
2018-05-25T20:55:03.095Z,8.23
2018-05-25T20:57:30.652Z,6.57
2018-05-25T20:59:58.124Z,6.70
2018-05-25T21:02:25.674Z,5.70
2018-05-25T21:04:53.232Z,6.70
2018-05-25T21:07:20.797Z,6.33
2018-05-25T21:09:48.261Z,6.20
2018-05-25T21:12:15.909Z,7.40
2018-05-25T21:14:43.341Z,7.77
2018-05-25T21:17:10.815Z,11.73
2018-05-25T21:19:38.285Z,8.13
2018-05-25T21:22:05.754Z,9.40
2018-05-25T21:24:33.267Z,9.17
2018-05-25T21:27:00.773Z,8.43
2018-05-25T21:29:28.246Z,7.97
2018-05-25T21:31:55.785Z,9.60
2018-05-25T21:34:23.249Z,10.20
2018-05-25T21:36:50.760Z,8.57
2018-05-25T21:39:18.226Z,11.00
2018-05-25T21:41:45.680Z,9.83
2018-05-25T21:44:13.147Z,11.73
2018-05-25T21:46:40.613Z,9.97
2018-05-25T21:49:08.088Z,9.13
2018-05-25T21:51:35.559Z,9.03
2018-05-25T21:54:03.113Z,8.00
2018-05-25T21:56:30.679Z,9.30
2018-05-25T21:58:58.158Z,9.03
2018-05-25T22:01:26.385Z,7.80
2018-05-25T22:03:53.849Z,7.03
2018-05-25T22:06:21.313Z,7.30
2018-05-25T22:08:48.890Z,7.63
2018-05-25T22:11:16.506Z,7.70
2018-05-25T22:13:44.010Z,8.73
2018-05-25T22:16:11.473Z,7.73
2018-05-25T22:18:38.949Z,13.17
2018-05-25T22:21:07.196Z,12.97
2018-05-25T22:23:34.660Z,13.63
2018-05-25T22:26:02.223Z,15.33
2018-05-25T22:28:29.778Z,12.67
2018-05-25T22:30:57.245Z,10.83
2018-05-25T22:33:24.846Z,10.90
2018-05-25T22:35:52.265Z,11.23
2018-05-25T22:38:19.735Z,14.37
2018-05-25T22:40:47.973Z,11.17
2018-05-25T22:43:27.428Z,12.00
2018-05-25T22:46:07.001Z,9.27
2018-05-25T22:48:47.389Z,9.60
2018-05-25T22:51:26.801Z,8.47
2018-05-25T22:54:00.217Z,9.07
2018-05-25T22:56:27.694Z,9.53
2018-05-25T22:58:55.185Z,9.80
2018-05-25T23:01:22.656Z,9.70
2018-05-25T23:03:50.122Z,10.77
2018-05-25T23:06:18.381Z,11.10
2018-05-25T23:08:45.947Z,10.80
2018-05-25T23:11:13.497Z,10.97
2018-05-25T23:13:40.961Z,13.57
2018-05-25T23:16:08.516Z,12.20
2018-05-25T23:18:36.007Z,10.97
2018-05-25T23:21:03.456Z,10.80
2018-05-25T23:23:31.688Z,10.27
2018-05-25T23:25:59.173Z,9.63
2018-05-25T23:28:26.637Z,9.37
2018-05-25T23:30:54.101Z,8.53
2018-05-25T23:33:21.561Z,7.77
2018-05-25T23:35:49.805Z,8.03
2018-05-25T23:38:17.277Z,10.03
2018-05-25T23:40:44.841Z,10.20
2018-05-25T23:43:13.117Z,9.90
2018-05-25T23:45:40.594Z,10.20
2018-05-25T23:48:08.825Z,9.70
2018-05-25T23:50:36.289Z,9.30
2018-05-25T23:53:03.762Z,10.17
2018-05-25T23:55:31.320Z,9.27
2018-05-25T23:57:58.785Z,9.30
